Columbus, Ohio
Traffic Map
Current Weather Conditions
Columbus, Ohio
Overcast
Overcast
28°
Feels Like: 22°
Wind Chill: 22° Ceiling: 1800
Heat Index: 28° Visibility: 10mi
Dew Point: 21° Wind: 6mph
Humidity: 75% Direction: 320° (NW)
Pressure: 30.22in Gusts: 0mph
Raw Report DataKCMH 190851Z 32005KT 10SM OVC018 M02/M06 A3022 RMK AO2 SLP242 T10221061 53001
Traffic Incident Summary
Active as of:
Severity:
Category:
InformationThere was an issue retrieving the traffic information for this location. Please try a different location or try again shortly.
Advertisements
Track Severe Weather on mobile